Time;durP1;ratioP1;P1;durP2;ratioP2;P2;SDS_P1;SDS_P2;PMS_P1;PMS_P2;Temp;Humidity;BMP_temperature;BMP_pressure;BME280_temperature;BME280_humidity;BME280_pressure;Samples;Min_cycle;Max_cycle;Signal;HPM_P1;HPM_P2
2022/10/11 00:00:55;;;;;;;325.17;153.13;;;;;;;;;;4983832;28;20181;-57
2022/10/11 00:03:21;;;;;;;322.60;152.57;;;;;;;;;;4981912;28;20215;-57
2022/10/11 00:05:47;;;;;;;345.40;167.23;;;;;;;;;;4984580;28;20225;-57
2022/10/11 00:08:15;;;;;;;350.43;165.83;;;;;;;;;;4980601;28;20216;-57
2022/10/11 00:10:41;;;;;;;340.07;162.63;;;;;;;;;;4982823;28;20776;-57
2022/10/11 00:13:07;;;;;;;330.87;156.67;;;;;;;;;;4979976;28;20201;-57
2022/10/11 00:15:33;;;;;;;348.07;168.13;;;;;;;;;;4980405;28;20202;-57
2022/10/11 00:17:59;;;;;;;304.03;138.93;;;;;;;;;;4979750;28;20222;-57
2022/10/11 00:20:25;;;;;;;318.00;148.30;;;;;;;;;;4983471;28;20376;-56
2022/10/11 00:22:51;;;;;;;320.73;150.23;;;;;;;;;;4982897;28;20590;-57
2022/10/11 00:25:17;;;;;;;376.73;184.37;;;;;;;;;;4976647;28;20221;-57
2022/10/11 00:27:44;;;;;;;383.87;187.00;;;;;;;;;;4978286;28;20954;-56
2022/10/11 00:30:10;;;;;;;362.97;177.50;;;;;;;;;;4981973;28;20259;-56
2022/10/11 00:32:37;;;;;;;368.70;178.83;;;;;;;;;;4984287;28;20275;-56
2022/10/11 00:35:05;;;;;;;327.07;153.53;;;;;;;;;;4986107;28;20288;-57
2022/10/11 00:37:33;;;;;;;339.23;161.83;;;;;;;;;;4985909;28;20216;-57
2022/10/11 00:40:00;;;;;;;359.13;173.13;;;;;;;;;;4976375;28;20264;-57
2022/10/11 00:42:26;;;;;;;338.13;161.83;;;;;;;;;;4975939;28;20201;-56
2022/10/11 00:45:12;;;;;;;329.90;156.37;;;;;;;;;;4980612;28;20267;-57
2022/10/11 00:47:40;;;;;;;326.37;154.33;;;;;;;;;;4978352;28;20559;-57
2022/10/11 00:50:09;;;;;;;358.27;172.63;;;;;;;;;;4983065;28;20430;-56
2022/10/11 00:52:41;;;;;;;322.57;151.50;;;;;;;;;;4986746;28;20307;-56
2022/10/11 00:55:10;;;;;;;334.27;158.83;;;;;;;;;;4974383;28;20230;-57
2022/10/11 00:57:39;;;;;;;368.10;180.30;;;;;;;;;;4984154;28;20177;-57
2022/10/11 01:00:07;;;;;;;341.43;161.90;;;;;;;;;;4985321;28;20620;-57
2022/10/11 01:02:33;;;;;;;339.67;165.53;;;;;;;;;;4984318;28;20220;-57
2022/10/11 01:04:59;;;;;;;369.23;178.57;;;;;;;;;;4974663;28;20715;-57
2022/10/11 01:07:29;;;;;;;332.50;157.80;;;;;;;;;;4974988;28;20237;-57
2022/10/11 01:09:55;;;;;;;342.30;163.93;;;;;;;;;;4985113;28;21040;-56
2022/10/11 01:12:23;;;;;;;346.87;167.10;;;;;;;;;;4986810;28;20269;-57
2022/10/11 01:14:54;;;;;;;316.60;148.00;;;;;;;;;;4979679;28;20667;-56
2022/10/11 01:17:32;;;;;;;360.10;177.10;;;;;;;;;;4980411;28;20217;-57
2022/10/11 01:20:21;;;;;;;316.83;150.43;;;;;;;;;;4983793;28;20225;-56
2022/10/11 01:23:06;;;;;;;352.23;168.77;;;;;;;;;;4988169;28;20622;-57
2022/10/11 01:25:32;;;;;;;330.67;159.43;;;;;;;;;;5012574;28;20224;-57
2022/10/11 01:28:15;;;;;;;324.27;155.57;;;;;;;;;;4991971;28;22811;-56
2022/10/11 01:30:42;;;;;;;308.27;145.80;;;;;;;;;;4993106;28;20653;-56
2022/10/11 01:33:20;;;;;;;320.40;152.93;;;;;;;;;;4988057;28;20450;-56
2022/10/11 01:35:49;;;;;;;351.87;170.47;;;;;;;;;;4985280;28;20220;-57
2022/10/11 01:38:17;;;;;;;361.17;178.23;;;;;;;;;;4984692;28;20227;-57
2022/10/11 01:40:54;;;;;;;322.27;154.97;;;;;;;;;;4989750;28;20239;-57
2022/10/11 01:43:23;;;;;;;308.57;145.53;;;;;;;;;;4991260;28;20213;-57
2022/10/11 01:45:50;;;;;;;337.47;161.63;;;;;;;;;;4982977;28;20198;-57
2022/10/11 01:48:16;;;;;;;319.07;149.47;;;;;;;;;;4986010;28;20947;-56
2022/10/11 01:50:49;;;;;;;294.17;135.17;;;;;;;;;;4986841;28;20379;-57
2022/10/11 01:53:28;;;;;;;343.73;163.27;;;;;;;;;;4982431;28;20680;-57
2022/10/11 01:55:56;;;;;;;324.10;152.37;;;;;;;;;;4986680;28;20714;-57
2022/10/11 01:58:25;;;;;;;324.60;152.87;;;;;;;;;;4985714;28;20237;-57
2022/10/11 02:01:02;;;;;;;327.53;155.30;;;;;;;;;;4989297;28;20193;-56
2022/10/11 02:03:33;;;;;;;353.77;168.47;;;;;;;;;;4981789;28;20216;-57
2022/10/11 02:06:28;;;;;;;365.77;179.00;;;;;;;;;;4985465;28;20225;-57
2022/10/11 02:08:59;;;;;;;329.03;155.27;;;;;;;;;;4978933;28;20789;-57
2022/10/11 02:11:27;;;;;;;309.53;143.33;;;;;;;;;;4988201;28;20220;-57
2022/10/11 02:13:56;;;;;;;304.83;141.40;;;;;;;;;;4988521;28;20597;-56
2022/10/11 02:16:25;;;;;;;345.50;166.87;;;;;;;;;;4982036;28;20375;-57
2022/10/11 02:18:51;;;;;;;301.27;138.80;;;;;;;;;;4988305;28;20213;-56
2022/10/11 02:21:19;;;;;;;351.67;166.23;;;;;;;;;;4979239;28;20248;-56
2022/10/11 02:23:48;;;;;;;341.60;162.80;;;;;;;;;;4982211;28;20234;-56
2022/10/11 02:26:15;;;;;;;330.77;154.80;;;;;;;;;;4979176;28;20253;-56
2022/10/11 02:28:43;;;;;;;325.00;151.10;;;;;;;;;;4984325;28;20228;-56
2022/10/11 02:31:10;;;;;;;319.20;147.83;;;;;;;;;;4982532;28;20225;-56
2022/10/11 02:33:38;;;;;;;325.13;152.90;;;;;;;;;;4987666;28;20177;-57
2022/10/11 02:36:11;;;;;;;335.73;156.67;;;;;;;;;;4986793;28;20229;-57
2022/10/11 02:38:44;;;;;;;325.43;153.50;;;;;;;;;;4979080;28;20359;-57
2022/10/11 02:41:21;;;;;;;340.60;159.00;;;;;;;;;;4976348;28;20267;-56
2022/10/11 02:43:56;;;;;;;339.70;161.27;;;;;;;;;;4986546;28;20217;-57
2022/10/11 02:46:22;;;;;;;286.47;130.20;;;;;;;;;;4986260;28;20224;-57
2022/10/11 02:48:49;;;;;;;323.47;150.27;;;;;;;;;;4980332;28;20255;-57
2022/10/11 02:51:15;;;;;;;324.00;150.00;;;;;;;;;;4988367;28;20586;-57
2022/10/11 02:53:41;;;;;;;317.13;145.80;;;;;;;;;;4981841;28;20225;-56
2022/10/11 02:56:07;;;;;;;366.80;176.70;;;;;;;;;;4984719;28;20228;-57
2022/10/11 02:58:33;;;;;;;291.40;132.67;;;;;;;;;;4987815;28;20792;-56
2022/10/11 03:00:58;;;;;;;325.20;151.93;;;;;;;;;;4981643;28;20273;-57
2022/10/11 03:03:24;;;;;;;325.57;153.33;;;;;;;;;;4984284;28;20294;-57
2022/10/11 03:05:50;;;;;;;337.63;160.40;;;;;;;;;;4986223;28;20228;-57
2022/10/11 03:08:16;;;;;;;343.40;159.77;;;;;;;;;;4987171;28;20244;-57
2022/10/11 03:10:42;;;;;;;319.07;151.17;;;;;;;;;;4980057;28;20216;-57
2022/10/11 03:13:08;;;;;;;325.57;155.50;;;;;;;;;;4979991;28;20212;-56
2022/10/11 03:15:35;;;;;;;333.97;159.50;;;;;;;;;;4979726;28;20197;-56
2022/10/11 03:18:01;;;;;;;352.97;169.50;;;;;;;;;;4984828;28;21961;-56
2022/10/11 03:20:27;;;;;;;332.00;156.40;;;;;;;;;;4982447;28;20629;-56
2022/10/11 03:22:52;;;;;;;342.67;163.87;;;;;;;;;;4982693;28;20300;-57
2022/10/11 03:25:18;;;;;;;401.97;199.47;;;;;;;;;;4976806;28;20212;-57
2022/10/11 03:27:44;;;;;;;322.80;149.40;;;;;;;;;;4980850;28;20590;-56
2022/10/11 03:30:12;;;;;;;296.20;132.87;;;;;;;;;;4980436;28;23079;-57
2022/10/11 03:32:37;;;;;;;294.70;133.87;;;;;;;;;;4987029;28;20215;-56
2022/10/11 03:35:04;;;;;;;329.17;154.97;;;;;;;;;;4981611;28;20213;-56
2022/10/11 03:37:29;;;;;;;330.93;156.57;;;;;;;;;;4985633;28;20648;-56
2022/10/11 03:39:56;;;;;;;325.63;155.07;;;;;;;;;;4978385;28;20212;-57
2022/10/11 03:42:21;;;;;;;311.90;148.57;;;;;;;;;;4985476;28;20665;-56
2022/10/11 03:44:50;;;;;;;322.60;151.53;;;;;;;;;;5013280;28;20213;-56
2022/10/11 03:47:16;;;;;;;309.30;145.47;;;;;;;;;;4984112;28;20304;-56
2022/10/11 03:49:42;;;;;;;302.03;140.60;;;;;;;;;;4986733;28;20574;-57
2022/10/11 03:52:09;;;;;;;329.77;155.23;;;;;;;;;;4975970;28;20214;-56
2022/10/11 03:54:34;;;;;;;325.90;153.87;;;;;;;;;;4983224;28;20185;-57
2022/10/11 03:57:00;;;;;;;312.03;144.90;;;;;;;;;;4987347;28;20229;-56
2022/10/11 03:59:26;;;;;;;304.23;139.30;;;;;;;;;;4991267;28;20724;-56
2022/10/11 04:01:53;;;;;;;318.17;148.40;;;;;;;;;;4985220;28;20251;-56
2022/10/11 04:04:18;;;;;;;318.27;148.57;;;;;;;;;;4981353;28;20217;-56
2022/10/11 04:06:44;;;;;;;319.37;149.83;;;;;;;;;;4979901;28;20216;-56
2022/10/11 04:09:10;;;;;;;299.17;137.37;;;;;;;;;;4982965;28;20468;-56
2022/10/11 04:11:37;;;;;;;337.30;159.80;;;;;;;;;;4987525;28;20251;-57
2022/10/11 04:14:04;;;;;;;327.73;155.60;;;;;;;;;;4979326;28;20218;-56
2022/10/11 04:16:30;;;;;;;294.27;135.80;;;;;;;;;;4989397;28;20209;-56
2022/10/11 04:18:56;;;;;;;322.67;152.27;;;;;;;;;;4979366;28;20200;-57
2022/10/11 04:21:21;;;;;;;295.80;138.80;;;;;;;;;;4985315;28;20181;-56
2022/10/11 04:23:47;;;;;;;323.10;153.60;;;;;;;;;;4983601;28;20298;-56
2022/10/11 04:26:13;;;;;;;298.23;140.07;;;;;;;;;;4984806;28;20220;-57
2022/10/11 04:28:39;;;;;;;293.97;138.43;;;;;;;;;;4985096;28;20220;-56
2022/10/11 04:31:06;;;;;;;309.53;147.33;;;;;;;;;;4983826;28;20724;-56
2022/10/11 04:33:33;;;;;;;311.33;146.50;;;;;;;;;;4986193;28;20197;-56
2022/10/11 04:35:59;;;;;;;322.63;154.77;;;;;;;;;;4981005;28;20860;-56
2022/10/11 04:38:25;;;;;;;289.93;139.20;;;;;;;;;;4978975;28;20230;-57
2022/10/11 04:40:51;;;;;;;286.33;133.80;;;;;;;;;;4990999;28;20698;-56
2022/10/11 04:43:17;;;;;;;302.47;143.87;;;;;;;;;;4987849;28;20278;-56
2022/10/11 04:45:44;;;;;;;310.27;149.17;;;;;;;;;;4981441;28;20241;-56
2022/10/11 04:48:09;;;;;;;305.93;144.57;;;;;;;;;;4982716;28;20220;-56
2022/10/11 04:50:35;;;;;;;309.73;148.53;;;;;;;;;;4979257;28;20212;-56
2022/10/11 04:53:01;;;;;;;316.60;150.70;;;;;;;;;;4979058;28;20209;-56
2022/10/11 04:55:28;;;;;;;301.83;141.00;;;;;;;;;;4991141;28;20232;-56
2022/10/11 04:57:54;;;;;;;294.67;141.60;;;;;;;;;;5014253;28;20184;-56
2022/10/11 05:00:20;;;;;;;342.17;162.43;;;;;;;;;;4979703;28;20252;-56
2022/10/11 05:02:46;;;;;;;341.33;166.17;;;;;;;;;;4968793;28;20228;-56
2022/10/11 05:05:16;;;;;;;362.87;178.13;;;;;;;;;;4979752;28;20597;-56
2022/10/11 05:07:42;;;;;;;282.50;131.10;;;;;;;;;;4979943;28;20210;-56
2022/10/11 05:10:08;;;;;;;268.90;127.20;;;;;;;;;;4985323;28;20213;-56
2022/10/11 05:12:34;;;;;;;289.20;138.27;;;;;;;;;;4985358;28;20177;-56
2022/10/11 05:15:00;;;;;;;344.93;163.07;;;;;;;;;;4974774;28;20217;-56
2022/10/11 05:17:26;;;;;;;307.10;147.00;;;;;;;;;;4975003;28;20227;-56
2022/10/11 05:19:52;;;;;;;288.70;141.50;;;;;;;;;;4985457;28;20575;-56
2022/10/11 05:22:18;;;;;;;294.33;138.83;;;;;;;;;;4984211;28;20296;-56
2022/10/11 05:24:44;;;;;;;299.87;143.43;;;;;;;;;;4984059;28;20193;-56
2022/10/11 05:27:10;;;;;;;322.63;158.97;;;;;;;;;;4968187;28;20781;-56
2022/10/11 05:29:36;;;;;;;326.40;155.43;;;;;;;;;;4995097;28;20348;-56
2022/10/11 05:32:02;;;;;;;316.20;150.27;;;;;;;;;;4976944;28;20220;-56
2022/10/11 05:34:28;;;;;;;312.17;149.23;;;;;;;;;;4984252;28;20221;-56
2022/10/11 05:36:55;;;;;;;285.80;135.50;;;;;;;;;;5014619;28;20216;-57
2022/10/11 05:39:21;;;;;;;497.57;259.23;;;;;;;;;;4982519;28;20948;-56
2022/10/11 05:41:47;;;;;;;303.23;153.33;;;;;;;;;;4985494;28;20694;-56
2022/10/11 05:44:13;;;;;;;328.97;150.43;;;;;;;;;;4983705;28;20216;-56
2022/10/11 05:46:39;;;;;;;297.47;132.90;;;;;;;;;;4981926;28;20556;-56
2022/10/11 05:49:05;;;;;;;333.93;153.93;;;;;;;;;;4982033;28;20284;-56
2022/10/11 05:51:31;;;;;;;320.17;147.10;;;;;;;;;;4972257;28;20687;-56
2022/10/11 05:53:57;;;;;;;323.97;149.00;;;;;;;;;;4984435;28;20711;-56
2022/10/11 05:56:24;;;;;;;300.37;134.63;;;;;;;;;;4980981;28;20603;-56
2022/10/11 05:58:50;;;;;;;296.90;133.87;;;;;;;;;;4995398;28;20220;-56
2022/10/11 06:01:20;;;;;;;320.73;146.37;;;;;;;;;;4986897;28;20291;-56
2022/10/11 06:03:47;;;;;;;322.43;151.30;;;;;;;;;;4982855;28;21226;-56
2022/10/11 06:06:13;;;;;;;343.43;161.10;;;;;;;;;;4982094;28;20209;-56
2022/10/11 06:08:38;;;;;;;373.97;176.67;;;;;;;;;;4971098;28;20214;-55
2022/10/11 06:11:12;;;;;;;341.37;161.77;;;;;;;;;;4982876;28;20216;-54
2022/10/11 06:13:37;;;;;;;333.17;153.53;;;;;;;;;;4984765;28;20713;-55
2022/10/11 06:16:04;;;;;;;312.10;141.17;;;;;;;;;;4981708;28;20209;-54
2022/10/11 06:18:30;;;;;;;306.03;137.03;;;;;;;;;;4987756;28;20677;-55
2022/10/11 06:20:57;;;;;;;436.50;194.10;;;;;;;;;;4949848;28;20213;-55
2022/10/11 06:23:23;;;;;;;338.93;148.73;;;;;;;;;;4981350;28;20632;-55
2022/10/11 06:25:59;;;;;;;303.77;134.07;;;;;;;;;;4989897;28;20229;-55
2022/10/11 06:28:26;;;;;;;277.47;122.17;;;;;;;;;;4990202;28;20299;-55
2022/10/11 06:30:52;;;;;;;305.90;134.73;;;;;;;;;;4991926;28;20186;-55
2022/10/11 06:33:18;;;;;;;294.17;130.67;;;;;;;;;;4987760;28;20931;-54
2022/10/11 06:35:44;;;;;;;352.27;155.57;;;;;;;;;;4985455;28;20328;-55
2022/10/11 06:38:10;;;;;;;317.20;137.03;;;;;;;;;;4992391;28;20625;-56
2022/10/11 06:40:36;;;;;;;341.70;150.90;;;;;;;;;;4985167;28;20219;-55
2022/10/11 06:43:02;;;;;;;351.37;152.03;;;;;;;;;;4979705;28;20217;-55
2022/10/11 06:45:28;;;;;;;411.53;203.13;;;;;;;;;;4967490;28;20280;-55
2022/10/11 06:47:54;;;;;;;335.60;151.33;;;;;;;;;;4986005;28;20240;-55
2022/10/11 06:50:20;;;;;;;327.53;145.30;;;;;;;;;;4979075;28;20300;-55
2022/10/11 06:52:46;;;;;;;339.43;147.73;;;;;;;;;;4977627;28;20217;-55
2022/10/11 06:55:12;;;;;;;321.53;143.07;;;;;;;;;;4987028;28;20286;-55
2022/10/11 06:57:38;;;;;;;312.40;141.67;;;;;;;;;;4992311;28;20276;-55
2022/10/11 07:00:04;;;;;;;367.67;162.53;;;;;;;;;;4989557;28;20228;-55
2022/10/11 07:02:30;;;;;;;307.43;136.43;;;;;;;;;;4993652;28;20266;-55
2022/10/11 07:04:56;;;;;;;336.07;156.10;;;;;;;;;;4986025;28;20315;-55
2022/10/11 07:07:22;;;;;;;308.67;138.13;;;;;;;;;;4978992;28;20693;-55
2022/10/11 07:09:48;;;;;;;306.13;137.63;;;;;;;;;;4994811;28;20232;-54
2022/10/11 07:12:15;;;;;;;321.13;144.97;;;;;;;;;;4981807;28;20266;-54
2022/10/11 07:14:41;;;;;;;343.67;157.83;;;;;;;;;;4988802;28;20877;-54
2022/10/11 07:17:07;;;;;;;305.63;137.70;;;;;;;;;;4994400;28;20271;-54
2022/10/11 07:19:33;;;;;;;302.80;132.87;;;;;;;;;;4989994;28;20275;-55
2022/10/11 07:21:59;;;;;;;309.93;134.83;;;;;;;;;;4981805;28;20300;-55
2022/10/11 07:24:24;;;;;;;311.07;137.93;;;;;;;;;;4986629;28;20200;-55
2022/10/11 07:26:50;;;;;;;302.40;135.27;;;;;;;;;;4978723;28;20903;-55
2022/10/11 07:29:17;;;;;;;306.07;139.20;;;;;;;;;;4985193;28;20678;-55
2022/10/11 07:31:43;;;;;;;319.37;144.13;;;;;;;;;;4981251;28;20213;-55
2022/10/11 07:34:09;;;;;;;306.53;142.53;;;;;;;;;;4990608;28;20585;-55
2022/10/11 07:36:35;;;;;;;326.57;155.50;;;;;;;;;;4989391;28;20248;-55
2022/10/11 07:39:04;;;;;;;301.10;134.67;;;;;;;;;;4992240;28;20236;-55
2022/10/11 07:41:30;;;;;;;333.23;155.10;;;;;;;;;;4989730;28;20206;-55
2022/10/11 07:43:56;;;;;;;344.40;160.80;;;;;;;;;;4988563;28;20224;-55
2022/10/11 07:46:22;;;;;;;306.23;137.30;;;;;;;;;;4983587;28;20718;-55
2022/10/11 07:48:49;;;;;;;323.00;149.47;;;;;;;;;;4984237;28;20243;-55
2022/10/11 07:51:16;;;;;;;345.73;160.57;;;;;;;;;;4981429;28;20732;-55
2022/10/11 07:53:43;;;;;;;302.83;136.40;;;;;;;;;;4983722;28;20225;-55
2022/10/11 07:56:11;;;;;;;294.67;131.60;;;;;;;;;;4991365;28;20224;-55
2022/10/11 07:58:37;;;;;;;309.57;138.67;;;;;;;;;;4982870;28;20226;-55
2022/10/11 08:01:03;;;;;;;322.67;146.63;;;;;;;;;;4979936;28;20213;-55
2022/10/11 08:03:29;;;;;;;328.43;150.53;;;;;;;;;;4980473;28;20209;-55
2022/10/11 08:05:59;;;;;;;371.53;179.23;;;;;;;;;;4982399;28;20693;-55
2022/10/11 08:08:25;;;;;;;310.63;144.13;;;;;;;;;;4992014;28;20239;-55
2022/10/11 08:10:51;;;;;;;321.83;150.17;;;;;;;;;;4981218;28;20476;-55
2022/10/11 08:13:17;;;;;;;327.77;153.17;;;;;;;;;;4988898;28;20216;-55
2022/10/11 08:15:43;;;;;;;377.37;181.40;;;;;;;;;;4982315;28;20240;-55
2022/10/11 08:18:09;;;;;;;314.03;138.63;;;;;;;;;;4989913;28;20265;-55
2022/10/11 08:20:37;;;;;;;352.40;156.93;;;;;;;;;;4987485;28;20687;-55
2022/10/11 08:23:03;;;;;;;351.90;157.20;;;;;;;;;;4979309;28;20217;-55
2022/10/11 08:25:29;;;;;;;325.33;151.87;;;;;;;;;;4985148;28;20239;-55
2022/10/11 08:27:55;;;;;;;318.50;143.60;;;;;;;;;;4984843;28;20622;-56
2022/10/11 08:30:21;;;;;;;327.60;150.00;;;;;;;;;;4983096;28;20636;-55
2022/10/11 08:32:47;;;;;;;340.17;152.77;;;;;;;;;;4986276;28;20209;-55
2022/10/11 08:35:13;;;;;;;322.43;150.57;;;;;;;;;;4986030;28;20921;-55
2022/10/11 08:37:39;;;;;;;326.73;152.33;;;;;;;;;;4988991;28;20331;-55
2022/10/11 08:40:05;;;;;;;329.57;148.67;;;;;;;;;;4985246;28;20827;-55
2022/10/11 08:43:00;;;;;;;327.97;154.10;;;;;;;;;;4985049;28;20634;-55
2022/10/11 08:45:29;;;;;;;314.53;145.60;;;;;;;;;;4975682;28;20648;-55
2022/10/11 08:48:02;;;;;;;357.73;165.93;;;;;;;;;;4983009;28;20612;-55
2022/10/11 08:50:28;;;;;;;327.77;150.97;;;;;;;;;;4988579;28;20225;-55
2022/10/11 08:52:57;;;;;;;313.10;143.73;;;;;;;;;;4988420;28;20217;-55
2022/10/11 08:55:31;;;;;;;329.70;153.93;;;;;;;;;;4987387;28;20770;-55
2022/10/11 08:57:58;;;;;;;325.00;151.53;;;;;;;;;;4981338;28;20189;-55
2022/10/11 09:00:26;;;;;;;327.40;152.30;;;;;;;;;;4984474;28;20409;-55
2022/10/11 09:02:58;;;;;;;343.40;161.40;;;;;;;;;;4985079;28;20300;-55
2022/10/11 09:05:27;;;;;;;321.27;148.07;;;;;;;;;;4987536;28;20237;-55
2022/10/11 09:07:56;;;;;;;342.03;161.87;;;;;;;;;;4988965;28;20259;-55
2022/10/11 09:10:24;;;;;;;318.97;149.07;;;;;;;;;;4992283;28;20394;-55
2022/10/11 09:12:58;;;;;;;346.93;166.13;;;;;;;;;;4983093;28;20174;-55
2022/10/11 09:15:27;;;;;;;331.10;155.73;;;;;;;;;;4983767;28;20882;-55
2022/10/11 09:18:12;;;;;;;304.60;141.73;;;;;;;;;;4977665;28;20776;-56
2022/10/11 09:20:43;;;;;;;408.00;207.80;;;;;;;;;;4978603;28;20216;-55
2022/10/11 09:23:35;;;;;;;331.47;160.20;;;;;;;;;;4978374;28;20239;-55
2022/10/11 09:26:06;;;;;;;334.43;160.50;;;;;;;;;;4968470;28;20221;-55
2022/10/11 09:28:42;;;;;;;337.13;157.83;;;;;;;;;;4978965;28;20213;-55
2022/10/11 09:31:09;;;;;;;366.73;165.73;;;;;;;;;;4975716;28;20723;-55
2022/10/11 09:33:41;;;;;;;323.03;150.10;;;;;;;;;;4983714;28;20201;-55
2022/10/11 09:36:26;;;;;;;331.13;158.53;;;;;;;;;;5022561;28;20360;-55
2022/10/11 09:39:11;;;;;;;310.97;145.33;;;;;;;;;;4991926;28;20700;-55
2022/10/11 09:41:41;;;;;;;345.97;167.40;;;;;;;;;;4992259;28;20221;-55
2022/10/11 09:44:07;;;;;;;312.77;147.57;;;;;;;;;;4995170;28;20698;-55
2022/10/11 09:46:43;;;;;;;325.07;154.60;;;;;;;;;;4989807;28;20225;-55
2022/10/11 09:49:12;;;;;;;319.33;149.57;;;;;;;;;;4993613;28;20333;-55
2022/10/11 09:51:39;;;;;;;305.07;141.00;;;;;;;;;;4996607;28;20252;-55
2022/10/11 09:54:05;;;;;;;312.43;145.53;;;;;;;;;;4989136;28;20209;-55
2022/10/11 09:56:33;;;;;;;366.87;180.10;;;;;;;;;;4993512;28;20221;-55
2022/10/11 09:59:17;;;;;;;347.00;169.07;;;;;;;;;;4993049;28;20279;-55
2022/10/11 10:01:43;;;;;;;313.37;147.47;;;;;;;;;;4995625;28;20229;-55
2022/10/11 10:04:11;;;;;;;353.60;175.63;;;;;;;;;;4995545;28;20244;-55
2022/10/11 10:06:37;;;;;;;365.03;178.80;;;;;;;;;;4988364;28;20713;-55
2022/10/11 10:09:20;;;;;;;371.73;185.20;;;;;;;;;;4986144;28;20222;-55
2022/10/11 10:11:46;;;;;;;341.65;165.60;;;;;;;;;;4987178;28;20212;-55
2022/10/11 10:14:23;;;;;;;333.07;158.60;;;;;;;;;;4980031;28;20575;-55
2022/10/11 10:16:57;;;;;;;342.87;168.40;;;;;;;;;;4987042;28;20225;-55
2022/10/11 10:19:24;;;;;;;324.33;158.77;;;;;;;;;;4996901;28;20224;-55
2022/10/11 10:21:51;;;;;;;316.00;154.23;;;;;;;;;;4986241;28;20181;-55
2022/10/11 10:24:25;;;;;;;355.50;180.70;;;;;;;;;;4989915;28;20238;-55
2022/10/11 10:27:17;;;;;;;348.17;171.67;;;;;;;;;;4987799;28;20271;-55
2022/10/11 10:29:44;;;;;;;327.03;164.20;;;;;;;;;;4989124;28;20765;-55
2022/10/11 10:32:20;;;;;;;320.43;156.03;;;;;;;;;;4993083;28;20242;-55
2022/10/11 10:35:07;;;;;;;322.47;156.27;;;;;;;;;;4992794;28;20879;-55
2022/10/11 10:37:35;;;;;;;322.60;159.93;;;;;;;;;;4992375;28;21185;-55
2022/10/11 10:40:05;;;;;;;326.57;161.13;;;;;;;;;;4994078;28;20249;-55
2022/10/11 10:42:31;;;;;;;332.90;166.07;;;;;;;;;;4997013;28;20607;-55
2022/10/11 10:44:58;;;;;;;318.87;158.63;;;;;;;;;;4991383;28;20514;-55
2022/10/11 10:47:27;;;;;;;323.73;165.03;;;;;;;;;;4997239;28;20238;-55
2022/10/11 10:50:06;;;;;;;330.57;163.57;;;;;;;;;;4991560;28;20239;-56
2022/10/11 10:52:38;;;;;;;337.43;166.10;;;;;;;;;;4973848;28;20728;-55
2022/10/11 10:55:13;;;;;;;321.37;161.37;;;;;;;;;;4987050;28;20268;-54
2022/10/11 10:57:52;;;;;;;317.10;157.93;;;;;;;;;;4994781;28;20605;-55
2022/10/11 11:00:22;;;;;;;383.10;191.80;;;;;;;;;;4990258;28;21198;-55
2022/10/11 11:02:56;;;;;;;352.87;180.70;;;;;;;;;;4977279;28;20228;-55
2022/10/11 11:05:26;;;;;;;358.30;184.13;;;;;;;;;;4990942;28;20728;-55
2022/10/11 11:08:02;;;;;;;349.50;180.93;;;;;;;;;;4975268;28;20283;-54
2022/10/11 11:10:40;;;;;;;326.33;166.90;;;;;;;;;;4984527;28;20299;-55
2022/10/11 11:13:25;;;;;;;322.50;163.77;;;;;;;;;;4986842;28;20233;-55
2022/10/11 11:15:51;;;;;;;376.43;197.67;;;;;;;;;;4974854;28;20271;-55
2022/10/11 11:18:27;;;;;;;312.90;155.73;;;;;;;;;;4989664;28;20236;-55
2022/10/11 11:21:11;;;;;;;341.57;172.37;;;;;;;;;;4966445;28;20221;-55
2022/10/11 11:23:41;;;;;;;345.23;179.63;;;;;;;;;;4965761;28;20445;-55
2022/10/11 11:26:12;;;;;;;364.40;191.70;;;;;;;;;;4952968;28;20316;-55
2022/10/11 11:28:52;;;;;;;328.47;174.30;;;;;;;;;;4966082;28;20217;-50
2022/10/11 11:31:33;;;;;;;296.13;151.60;;;;;;;;;;4968892;28;20218;-50
2022/10/11 11:34:01;;;;;;;355.07;186.67;;;;;;;;;;4953151;28;20228;-50
2022/10/11 11:36:30;;;;;;;316.10;163.03;;;;;;;;;;4966836;28;20280;-50
2022/10/11 11:38:59;;;;;;;342.53;179.23;;;;;;;;;;4970963;28;20695;-50
2022/10/11 11:41:36;;;;;;;326.27;172.73;;;;;;;;;;4968914;28;20523;-50
2022/10/11 11:44:10;;;;;;;312.77;161.33;;;;;;;;;;4970589;28;20213;-50
2022/10/11 11:46:42;;;;;;;353.17;190.33;;;;;;;;;;4966684;28;20693;-50
2022/10/11 11:49:31;;;;;;;322.37;166.77;;;;;;;;;;4970968;28;20221;-50
2022/10/11 11:51:57;;;;;;;348.63;183.53;;;;;;;;;;4961751;28;20186;-50
2022/10/11 11:54:32;;;;;;;323.47;166.97;;;;;;;;;;4970158;28;20181;-50
2022/10/11 11:57:04;;;;;;;323.40;166.33;;;;;;;;;;4968722;28;20328;-55
2022/10/11 11:59:45;;;;;;;377.33;200.23;;;;;;;;;;4960092;28;20229;-55
2022/10/11 12:02:16;;;;;;;358.23;190.17;;;;;;;;;;4962768;28;20673;-55
2022/10/11 12:04:44;;;;;;;310.17;157.50;;;;;;;;;;4967454;28;20704;-55
2022/10/11 12:07:15;;;;;;;385.67;208.80;;;;;;;;;;4962407;28;20244;-55
2022/10/11 12:09:43;;;;;;;328.47;165.03;;;;;;;;;;4967564;28;20181;-55
2022/10/11 12:12:25;;;;;;;355.40;176.90;;;;;;;;;;4955052;28;20214;-56
2022/10/11 12:14:52;;;;;;;351.27;182.63;;;;;;;;;;4958194;28;20356;-55
2022/10/11 12:17:20;;;;;;;345.17;178.43;;;;;;;;;;4959892;28;20221;-55
2022/10/11 12:19:58;;;;;;;363.93;189.63;;;;;;;;;;4955829;28;20253;-55
2022/10/11 12:22:27;;;;;;;358.97;189.23;;;;;;;;;;4950409;28;20243;-55
2022/10/11 12:24:54;;;;;;;346.60;179.27;;;;;;;;;;4960382;28;21216;-55
2022/10/11 12:27:42;;;;;;;352.37;185.17;;;;;;;;;;4978657;28;20299;-55
2022/10/11 12:30:26;;;;;;;331.47;168.33;;;;;;;;;;4979740;28;20225;-56
2022/10/11 12:33:02;;;;;;;355.20;187.93;;;;;;;;;;4950600;28;20583;-55
2022/10/11 12:35:31;;;;;;;330.50;173.83;;;;;;;;;;4962361;28;20213;-55
2022/10/11 12:38:15;;;;;;;324.87;169.23;;;;;;;;;;4966453;28;20223;-55
2022/10/11 12:40:45;;;;;;;337.97;179.20;;;;;;;;;;4968387;28;20572;-55
2022/10/11 12:43:14;;;;;;;335.60;182.10;;;;;;;;;;4973013;28;20213;-55
2022/10/11 12:45:46;;;;;;;372.63;205.20;;;;;;;;;;4964020;28;20225;-55
2022/10/11 12:48:12;;;;;;;338.03;180.10;;;;;;;;;;4961813;28;20636;-55
2022/10/11 12:50:57;;;;;;;364.40;198.43;;;;;;;;;;4963246;28;20905;-55
2022/10/11 12:53:41;;;;;;;324.43;171.83;;;;;;;;;;4964101;28;20651;-55
2022/10/11 12:56:25;;;;;;;318.03;169.50;;;;;;;;;;4968490;28;20508;-55
2022/10/11 12:59:01;;;;;;;318.90;172.40;;;;;;;;;;4962093;28;20222;-55
2022/10/11 13:01:28;;;;;;;318.17;171.40;;;;;;;;;;4963449;28;20232;-55
2022/10/11 13:03:59;;;;;;;335.83;188.23;;;;;;;;;;4963552;28;20655;-55
2022/10/11 13:06:28;;;;;;;353.50;194.40;;;;;;;;;;4969682;28;20204;-55
2022/10/11 13:08:56;;;;;;;353.70;197.03;;;;;;;;;;4969524;28;20482;-55
2022/10/11 13:11:24;;;;;;;324.97;180.13;;;;;;;;;;4972702;28;20225;-55
2022/10/11 13:13:57;;;;;;;336.63;190.10;;;;;;;;;;4968830;28;20322;-55
2022/10/11 13:16:24;;;;;;;361.13;209.83;;;;;;;;;;4964748;28;20256;-55
2022/10/11 13:18:54;;;;;;;324.33;190.20;;;;;;;;;;4973188;28;20247;-55
2022/10/11 13:21:25;;;;;;;335.87;205.53;;;;;;;;;;4969526;28;20214;-56
2022/10/11 13:23:56;;;;;;;381.77;236.20;;;;;;;;;;4957771;28;20411;-56
2022/10/11 13:26:22;;;;;;;335.67;208.13;;;;;;;;;;4964901;28;20221;-56
2022/10/11 13:28:48;;;;;;;332.40;208.07;;;;;;;;;;4969621;28;20253;-56
2022/10/11 13:31:14;;;;;;;327.90;210.87;;;;;;;;;;4969462;28;20311;-56
2022/10/11 13:33:41;;;;;;;336.77;213.13;;;;;;;;;;4968751;28;20610;-56
2022/10/11 13:36:12;;;;;;;367.33;243.80;;;;;;;;;;4973682;28;21070;-56
2022/10/11 13:38:39;;;;;;;335.15;220.05;;;;;;;;;;4963548;28;20817;-56
2022/10/11 13:41:07;;;;;;;338.87;233.80;;;;;;;;;;4970163;28;20215;-56
2022/10/11 13:43:33;;;;;;;344.52;243.65;;;;;;;;;;4974196;28;20225;-56
2022/10/11 13:46:01;;;;;;;371.60;265.90;;;;;;;;;;4962535;28;20566;-56
2022/10/11 13:48:27;;;;;;;352.95;252.35;;;;;;;;;;4968052;28;20181;-56
2022/10/11 13:51:05;;;;;;;401.30;294.20;;;;;;;;;;4959381;28;20217;-56
2022/10/11 13:53:31;;;;;;;333.55;239.65;;;;;;;;;;4971286;28;20262;-56
2022/10/11 13:55:58;;;;;;;364.85;266.70;;;;;;;;;;4964924;28;20222;-56
2022/10/11 13:58:37;;;;;;;330.60;244.90;;;;;;;;;;4963279;28;20626;-57
2022/10/11 14:01:05;;;;;;;362.35;271.15;;;;;;;;;;4965520;28;20473;-56
2022/10/11 14:03:52;;;;;;;340.00;256.70;;;;;;;;;;4974816;28;20996;-56